createdAt,value
2019-02-20T00:01:34.749Z,85.43
2019-02-20T00:04:03.139Z,85.10
2019-02-20T00:06:31.566Z,84.80
2019-02-20T00:09:00.031Z,85.08
2019-02-20T00:11:28.433Z,85.16
2019-02-20T00:13:56.840Z,85.70
2019-02-20T00:16:25.336Z,85.85
2019-02-20T00:18:54.646Z,86.18
2019-02-20T00:21:23.041Z,86.15
2019-02-20T00:23:51.457Z,86.00
2019-02-20T00:26:19.887Z,86.05
2019-02-20T00:28:48.300Z,86.11
2019-02-20T00:31:16.718Z,86.09
2019-02-20T00:33:45.108Z,86.65
2019-02-20T00:36:13.533Z,86.32
2019-02-20T00:38:41.931Z,86.19
2019-02-20T00:41:10.342Z,85.27
2019-02-20T00:43:40.450Z,85.38
2019-02-20T00:46:16.194Z,85.74
2019-02-20T00:48:48.982Z,86.25
2019-02-20T00:51:30.643Z,86.64
2019-02-20T00:54:00.681Z,86.14
2019-02-20T00:56:29.083Z,86.56
2019-02-20T00:58:57.515Z,86.73
2019-02-20T01:01:25.911Z,86.42
2019-02-20T01:03:54.433Z,85.26
2019-02-20T01:06:22.898Z,85.68
2019-02-20T01:08:51.313Z,85.98
2019-02-20T01:11:19.709Z,85.76
2019-02-20T01:13:48.146Z,86.30
2019-02-20T01:16:16.647Z,86.86
2019-02-20T01:18:45.058Z,86.72
2019-02-20T01:21:13.487Z,86.60
2019-02-20T01:23:41.952Z,86.81
2019-02-20T01:26:10.460Z,87.11
2019-02-20T01:28:38.871Z,86.55
2019-02-20T01:31:07.298Z,86.65
2019-02-20T01:33:35.701Z,85.79
2019-02-20T01:36:04.111Z,86.68
2019-02-20T01:38:32.513Z,86.37
2019-02-20T01:41:00.911Z,86.76
2019-02-20T01:43:29.335Z,87.20
2019-02-20T01:45:57.725Z,87.32
2019-02-20T01:48:26.132Z,87.21
2019-02-20T01:50:54.549Z,86.97
2019-02-20T01:53:22.976Z,86.89
2019-02-20T01:55:51.368Z,87.21
2019-02-20T01:58:19.794Z,86.60
2019-02-20T02:00:48.188Z,87.16
2019-02-20T02:03:16.583Z,86.92
2019-02-20T02:05:45.091Z,87.77
2019-02-20T02:08:13.515Z,88.17
2019-02-20T02:10:41.924Z,87.99
2019-02-20T02:13:10.339Z,87.73
2019-02-20T02:15:38.809Z,87.41
2019-02-20T02:18:07.300Z,87.84
2019-02-20T02:20:36.310Z,87.80
2019-02-20T02:23:04.702Z,87.71
2019-02-20T02:25:33.187Z,87.54
2019-02-20T02:28:01.666Z,86.82
2019-02-20T02:30:30.092Z,86.59
2019-02-20T02:32:58.535Z,86.72
2019-02-20T02:35:26.993Z,86.78
2019-02-20T02:37:55.432Z,86.82
2019-02-20T02:40:23.883Z,87.24
2019-02-20T02:42:52.275Z,87.62
2019-02-20T02:45:20.763Z,87.57
2019-02-20T02:47:49.923Z,87.83
2019-02-20T02:50:18.323Z,87.93
2019-02-20T02:52:46.753Z,87.54
2019-02-20T02:55:15.180Z,87.22
2019-02-20T02:57:43.650Z,87.86
2019-02-20T03:00:12.325Z,88.05
2019-02-20T03:02:40.744Z,88.17
2019-02-20T03:05:09.283Z,88.22
2019-02-20T03:07:37.705Z,88.11
2019-02-20T03:10:07.545Z,87.88
2019-02-20T03:12:35.975Z,87.72
2019-02-20T03:15:06.916Z,87.66
2019-02-20T03:17:35.325Z,87.39
2019-02-20T03:20:04.665Z,87.24
2019-02-20T03:22:33.060Z,87.60
2019-02-20T03:25:01.544Z,87.96
2019-02-20T03:27:29.944Z,88.27
2019-02-20T03:29:58.415Z,88.07
2019-02-20T03:32:26.780Z,88.12
2019-02-20T03:34:55.207Z,87.77
2019-02-20T03:37:23.602Z,87.72
2019-02-20T03:39:51.998Z,87.79
2019-02-20T03:42:20.429Z,87.53
2019-02-20T03:44:48.821Z,87.54
2019-02-20T03:47:17.240Z,87.55
2019-02-20T03:49:45.631Z,87.15
2019-02-20T03:52:14.050Z,86.93
2019-02-20T03:54:42.525Z,86.91
2019-02-20T03:57:11.016Z,86.86
2019-02-20T03:59:39.553Z,86.70
2019-02-20T04:02:07.976Z,86.41
2019-02-20T04:04:36.375Z,86.43
2019-02-20T04:07:04.782Z,86.24
2019-02-20T04:09:33.202Z,86.48
2019-02-20T04:12:01.620Z,86.41
2019-02-20T04:14:30.034Z,86.36
2019-02-20T04:16:58.436Z,86.34
2019-02-20T04:19:26.863Z,86.46
2019-02-20T04:21:55.342Z,86.42
2019-02-20T04:24:23.772Z,86.17
2019-02-20T04:26:52.229Z,85.95
2019-02-20T04:29:20.572Z,85.83
2019-02-20T04:31:49.016Z,86.07
2019-02-20T04:34:17.420Z,85.92
2019-02-20T04:36:45.835Z,86.46
2019-02-20T04:39:14.238Z,86.10
2019-02-20T04:41:42.662Z,86.10
2019-02-20T04:44:11.068Z,86.23
2019-02-20T04:46:39.464Z,85.95
2019-02-20T04:49:07.891Z,85.89
2019-02-20T04:51:36.282Z,86.38
2019-02-20T04:54:13.020Z,86.37
2019-02-20T04:56:34.828Z,86.46
2019-02-20T04:59:03.266Z,86.24
2019-02-20T05:01:31.693Z,86.19
2019-02-20T05:04:00.153Z,86.08
2019-02-20T05:06:28.561Z,85.92
2019-02-20T05:08:56.958Z,85.97
2019-02-20T05:11:25.380Z,86.07
2019-02-20T05:13:53.791Z,86.24
2019-02-20T05:16:22.270Z,86.07
2019-02-20T05:18:50.623Z,86.61
2019-02-20T05:21:19.055Z,86.56
2019-02-20T05:23:47.458Z,86.54
2019-02-20T05:26:15.853Z,86.45
2019-02-20T05:28:44.287Z,86.23
2019-02-20T05:31:12.694Z,86.37
2019-02-20T05:33:41.097Z,86.22
2019-02-20T05:36:09.525Z,85.98
2019-02-20T05:38:37.940Z,86.11
2019-02-20T05:41:06.331Z,86.56
2019-02-20T05:43:34.752Z,86.32
2019-02-20T05:46:03.171Z,86.46
2019-02-20T05:48:31.560Z,86.86
2019-02-20T05:50:59.970Z,86.81
2019-02-20T05:53:28.453Z,87.19
2019-02-20T05:55:56.894Z,87.20
2019-02-20T05:58:25.291Z,87.16
2019-02-20T06:00:53.722Z,87.30
2019-02-20T06:03:22.121Z,87.29
2019-02-20T06:05:50.514Z,87.33
2019-02-20T06:08:18.936Z,87.46
2019-02-20T06:10:47.343Z,87.75
2019-02-20T06:13:15.746Z,87.57
2019-02-20T06:15:44.157Z,87.94
2019-02-20T06:18:12.562Z,88.02
2019-02-20T06:20:40.988Z,87.77
2019-02-20T06:23:09.399Z,87.58
2019-02-20T06:25:37.809Z,87.77
2019-02-20T06:28:06.235Z,88.12
2019-02-20T06:30:34.629Z,87.55
2019-02-20T06:33:03.143Z,88.01
2019-02-20T06:35:31.582Z,88.10
2019-02-20T06:37:59.978Z,88.48
2019-02-20T06:40:28.404Z,88.57
2019-02-20T06:42:56.883Z,88.17
2019-02-20T06:45:25.276Z,88.01
2019-02-20T06:47:53.724Z,87.68
2019-02-20T06:50:22.130Z,87.69
2019-02-20T06:52:50.545Z,87.91
2019-02-20T06:55:18.970Z,87.73
2019-02-20T06:57:47.390Z,88.12
2019-02-20T07:00:15.935Z,87.75
2019-02-20T07:02:44.352Z,87.38
2019-02-20T07:05:33.430Z,87.39
2019-02-20T07:08:16.867Z,87.44
2019-02-20T07:10:54.022Z,87.54
2019-02-20T07:13:25.618Z,87.25
2019-02-20T07:15:57.069Z,87.64
2019-02-20T07:18:37.871Z,87.50
2019-02-20T07:21:26.009Z,87.05
2019-02-20T07:24:15.798Z,87.10
2019-02-20T07:27:01.887Z,87.03
2019-02-20T07:29:44.540Z,87.09
2019-02-20T07:32:15.150Z,87.03
2019-02-20T07:34:43.547Z,86.82
2019-02-20T07:37:12.045Z,87.06
2019-02-20T07:39:40.446Z,86.99
2019-02-20T07:42:08.870Z,86.89
2019-02-20T07:44:37.303Z,87.00
2019-02-20T07:47:05.692Z,86.72
2019-02-20T07:49:34.136Z,86.80
2019-02-20T07:52:02.549Z,86.73
2019-02-20T07:54:30.948Z,86.68
2019-02-20T07:56:59.380Z,86.95
2019-02-20T07:59:27.827Z,87.10
2019-02-20T08:01:56.246Z,86.99
2019-02-20T08:04:24.663Z,87.32
2019-02-20T08:06:53.148Z,87.15
2019-02-20T08:09:21.627Z,87.13
2019-02-20T08:11:50.069Z,87.08
2019-02-20T08:14:18.472Z,87.04
2019-02-20T08:16:52.269Z,87.08
2019-02-20T08:19:17.039Z,86.95
2019-02-20T08:21:45.451Z,86.81
2019-02-20T08:24:13.895Z,86.44
2019-02-20T08:26:42.311Z,86.01
2019-02-20T08:29:10.876Z,85.88
2019-02-20T08:31:39.283Z,85.73
2019-02-20T08:34:07.768Z,85.72
2019-02-20T08:36:36.300Z,85.77
2019-02-20T08:39:05.605Z,85.71
2019-02-20T08:41:34.113Z,85.43
2019-02-20T08:44:02.590Z,85.62
2019-02-20T08:46:31.074Z,85.36
2019-02-20T08:48:59.641Z,85.24
2019-02-20T08:51:28.125Z,85.09
2019-02-20T08:53:56.650Z,84.73
2019-02-20T08:56:25.046Z,84.71
2019-02-20T08:58:53.547Z,84.82
2019-02-20T09:01:21.972Z,84.46
2019-02-20T09:03:50.375Z,84.59
2019-02-20T09:06:18.812Z,84.67
2019-02-20T09:08:47.210Z,84.02
2019-02-20T09:11:15.692Z,84.37
2019-02-20T09:13:44.143Z,84.08
2019-02-20T09:16:12.580Z,83.85
2019-02-20T09:18:41.015Z,83.78
2019-02-20T09:21:09.414Z,83.17
2019-02-20T09:23:37.865Z,83.27
2019-02-20T09:26:06.342Z,83.16
2019-02-20T09:28:34.776Z,83.54
2019-02-20T09:31:03.191Z,82.94
2019-02-20T09:33:31.614Z,82.92
2019-02-20T09:36:00.034Z,83.00
2019-02-20T09:38:28.546Z,82.85
2019-02-20T09:40:56.966Z,82.87
2019-02-20T09:43:25.434Z,82.63
2019-02-20T09:45:53.871Z,82.50
2019-02-20T09:48:22.348Z,82.76
2019-02-20T09:50:50.835Z,82.30
2019-02-20T09:53:19.246Z,81.73
2019-02-20T09:55:51.474Z,81.83
2019-02-20T09:58:17.935Z,81.31
2019-02-20T10:00:46.364Z,81.16
2019-02-20T10:03:14.803Z,80.38
2019-02-20T10:05:43.243Z,80.24
2019-02-20T10:08:11.674Z,80.44
2019-02-20T10:10:40.103Z,80.52
2019-02-20T10:13:10.948Z,80.41
2019-02-20T10:15:38.743Z,80.51
2019-02-20T10:18:07.736Z,80.29
2019-02-20T10:20:36.261Z,80.44
2019-02-20T10:23:04.678Z,80.71
2019-02-20T10:25:33.125Z,80.73
2019-02-20T10:28:01.635Z,80.71
2019-02-20T10:30:30.093Z,80.40
2019-02-20T10:32:58.660Z,80.52
2019-02-20T10:35:27.035Z,79.62
2019-02-20T10:37:55.457Z,80.17
2019-02-20T10:40:23.883Z,79.93
2019-02-20T10:42:52.290Z,79.72
2019-02-20T10:45:20.785Z,79.23
2019-02-20T10:47:49.194Z,78.78
2019-02-20T10:50:17.618Z,79.02
2019-02-20T10:52:46.038Z,78.42
2019-02-20T10:55:14.591Z,78.99
2019-02-20T10:57:43.032Z,78.59
2019-02-20T11:00:24.058Z,77.95
2019-02-20T11:02:47.598Z,78.31
2019-02-20T11:05:16.293Z,78.39
2019-02-20T11:07:44.722Z,78.26
2019-02-20T11:10:13.298Z,78.23
2019-02-20T11:12:41.781Z,78.32
2019-02-20T11:15:10.263Z,77.39
2019-02-20T11:17:38.679Z,77.57
2019-02-20T11:20:09.634Z,77.35
2019-02-20T11:22:38.067Z,76.58
2019-02-20T11:25:09.804Z,75.49
2019-02-20T11:27:39.588Z,75.16
2019-02-20T11:30:20.013Z,74.59
2019-02-20T11:32:48.437Z,73.07
2019-02-20T11:35:16.902Z,72.40
2019-02-20T11:37:45.317Z,70.32
2019-02-20T11:40:13.815Z,69.78
2019-02-20T11:42:42.235Z,70.22
2019-02-20T11:45:12.930Z,69.70
2019-02-20T11:47:41.427Z,68.73
2019-02-20T11:50:10.877Z,69.68
2019-02-20T11:52:39.674Z,68.37
2019-02-20T11:55:10.143Z,68.96
2019-02-20T11:57:38.628Z,69.20
2019-02-20T12:00:12.554Z,68.69
2019-02-20T12:02:42.227Z,67.30
2019-02-20T12:05:10.892Z,67.68
2019-02-20T12:07:39.314Z,68.13
2019-02-20T12:10:12.598Z,67.34
2019-02-20T12:12:40.783Z,67.17
2019-02-20T12:15:09.636Z,67.16
2019-02-20T12:17:38.147Z,66.86
2019-02-20T12:20:08.282Z,67.05
2019-02-20T12:22:36.765Z,66.90
2019-02-20T12:25:07.710Z,66.62
2019-02-20T12:27:36.188Z,66.41
2019-02-20T12:30:07.160Z,67.44
2019-02-20T12:32:35.617Z,67.36
2019-02-20T12:35:05.247Z,67.59
2019-02-20T12:37:33.680Z,67.23
2019-02-20T12:40:02.163Z,66.49
2019-02-20T12:42:30.585Z,66.53
2019-02-20T12:44:58.996Z,66.02
2019-02-20T12:47:27.427Z,66.14
2019-02-20T12:49:55.824Z,65.60
2019-02-20T12:52:24.223Z,65.51
2019-02-20T12:54:52.759Z,64.68
2019-02-20T12:57:21.155Z,64.73
2019-02-20T12:59:49.603Z,64.70
2019-02-20T13:02:18.039Z,64.77
2019-02-20T13:04:46.532Z,64.16
2019-02-20T13:07:15.025Z,64.21
2019-02-20T13:09:43.449Z,64.01
2019-02-20T13:12:11.859Z,64.52
2019-02-20T13:14:40.285Z,64.22
2019-02-20T13:17:08.756Z,64.27
2019-02-20T13:19:37.154Z,64.05
2019-02-20T13:22:05.644Z,63.55
2019-02-20T13:24:34.077Z,61.79
2019-02-20T13:27:07.707Z,60.96
2019-02-20T13:29:32.635Z,60.38
2019-02-20T13:32:01.116Z,59.53
2019-02-20T13:34:29.537Z,58.61
2019-02-20T13:36:57.966Z,59.47
2019-02-20T13:39:26.396Z,60.00
2019-02-20T13:41:54.892Z,60.03
2019-02-20T13:44:23.395Z,58.97
2019-02-20T13:46:52.097Z,56.54
2019-02-20T13:49:20.593Z,57.32
2019-02-20T13:51:49.002Z,57.32
2019-02-20T13:54:17.500Z,57.91
2019-02-20T13:56:46.011Z,58.23
2019-02-20T13:59:14.483Z,57.29
2019-02-20T14:01:42.958Z,56.57
2019-02-20T14:04:11.731Z,58.16
2019-02-20T14:06:40.135Z,57.69
2019-02-20T14:09:08.709Z,57.57
2019-02-20T14:11:37.252Z,57.05
2019-02-20T14:14:05.690Z,58.30
2019-02-20T14:16:34.086Z,56.75
2019-02-20T14:19:02.712Z,57.48
2019-02-20T14:21:31.880Z,58.49
2019-02-20T14:24:00.307Z,60.04
2019-02-20T14:26:28.718Z,60.42
2019-02-20T14:28:57.124Z,60.72
2019-02-20T14:31:25.543Z,60.37
2019-02-20T14:33:53.963Z,60.03
2019-02-20T14:36:22.389Z,60.36
2019-02-20T14:38:50.880Z,59.54
2019-02-20T14:41:20.932Z,59.27
2019-02-20T14:43:49.438Z,59.61
2019-02-20T14:46:17.841Z,58.56
2019-02-20T14:48:47.355Z,58.91
2019-02-20T14:51:15.801Z,58.98
2019-02-20T14:53:44.592Z,58.46
2019-02-20T14:56:13.016Z,59.26
2019-02-20T14:58:42.306Z,59.34
2019-02-20T15:01:10.741Z,59.41
2019-02-20T15:03:39.162Z,60.36
2019-02-20T15:06:07.685Z,60.00
2019-02-20T15:08:36.071Z,60.51
2019-02-20T15:11:04.983Z,61.32
2019-02-20T15:13:33.399Z,61.54
2019-02-20T15:16:01.807Z,61.86
2019-02-20T15:18:30.234Z,61.97
2019-02-20T15:20:58.697Z,62.03
2019-02-20T15:23:27.096Z,62.41
2019-02-20T15:25:55.602Z,62.67
2019-02-20T15:28:24.098Z,62.52
2019-02-20T15:30:52.485Z,62.15
2019-02-20T15:33:21.012Z,62.77
2019-02-20T15:35:49.399Z,62.93
2019-02-20T15:38:17.815Z,63.12
2019-02-20T15:40:46.256Z,62.61
2019-02-20T15:43:14.738Z,62.94
2019-02-20T15:45:43.175Z,63.31
2019-02-20T15:48:11.682Z,63.77
2019-02-20T15:50:40.110Z,63.69
2019-02-20T15:53:08.562Z,63.72
2019-02-20T15:55:36.941Z,64.11
2019-02-20T15:58:05.501Z,64.65
2019-02-20T16:00:34.285Z,64.56
2019-02-20T16:03:02.725Z,65.21
2019-02-20T16:05:31.133Z,65.62
2019-02-20T16:07:59.539Z,65.54
2019-02-20T16:10:27.992Z,65.59
2019-02-20T16:12:56.412Z,66.00
2019-02-20T16:15:24.889Z,66.05
2019-02-20T16:17:53.589Z,66.35
2019-02-20T16:20:22.004Z,66.23
2019-02-20T16:22:50.488Z,65.99
2019-02-20T16:25:18.888Z,66.44
2019-02-20T16:27:47.821Z,66.47
2019-02-20T16:30:16.512Z,66.38
2019-02-20T16:32:44.935Z,66.54
2019-02-20T16:35:13.632Z,66.63
2019-02-20T16:37:42.054Z,66.77
2019-02-20T16:40:17.862Z,66.93
2019-02-20T16:42:46.304Z,67.71
2019-02-20T16:45:23.449Z,67.84
2019-02-20T16:47:52.358Z,67.76
2019-02-20T16:50:20.922Z,68.16
2019-02-20T16:52:49.463Z,67.89
2019-02-20T16:55:19.669Z,67.94
2019-02-20T16:57:56.216Z,68.08
2019-02-20T17:00:21.155Z,68.44
2019-02-20T17:02:50.161Z,68.78
2019-02-20T17:05:18.650Z,69.46
2019-02-20T17:07:47.153Z,69.17
2019-02-20T17:10:16.454Z,69.39
2019-02-20T17:12:44.872Z,70.00
2019-02-20T17:15:15.678Z,70.80
2019-02-20T17:17:44.332Z,71.65
2019-02-20T17:20:15.155Z,72.49
2019-02-20T17:22:43.766Z,72.58
2019-02-20T17:25:13.292Z,73.32
2019-02-20T17:27:41.757Z,73.30
2019-02-20T17:30:15.540Z,73.75
2019-02-20T17:32:44.350Z,73.89
2019-02-20T17:35:13.061Z,73.90
2019-02-20T17:37:41.487Z,74.15
2019-02-20T17:40:11.360Z,74.82
2019-02-20T17:42:39.844Z,74.75
2019-02-20T17:45:13.180Z,74.73
2019-02-20T17:47:41.965Z,75.25
2019-02-20T17:50:13.001Z,75.44
2019-02-20T17:52:41.471Z,76.16
2019-02-20T17:55:10.838Z,75.92
2019-02-20T17:57:39.317Z,76.39
2019-02-20T18:00:11.054Z,76.44
2019-02-20T18:02:39.461Z,77.45
2019-02-20T18:05:08.436Z,77.33
2019-02-20T18:07:37.002Z,78.04
2019-02-20T18:10:07.882Z,77.92
2019-02-20T18:12:36.288Z,77.86
2019-02-20T18:15:07.138Z,78.25
2019-02-20T18:17:35.612Z,79.02
2019-02-20T18:20:05.219Z,79.26
2019-02-20T18:22:33.881Z,79.30
2019-02-20T18:25:02.327Z,79.20
2019-02-20T18:27:30.732Z,78.61
2019-02-20T18:29:59.151Z,79.36
2019-02-20T18:32:27.735Z,79.81
2019-02-20T18:34:56.143Z,78.88
2019-02-20T18:37:24.582Z,78.61
2019-02-20T18:39:52.976Z,78.61
2019-02-20T18:42:21.487Z,79.09
2019-02-20T18:44:49.939Z,79.54
2019-02-20T18:47:18.377Z,78.89
2019-02-20T18:49:46.779Z,79.97
2019-02-20T18:52:15.240Z,79.04
2019-02-20T18:54:45.163Z,79.00
2019-02-20T18:57:13.711Z,79.69
2019-02-20T18:59:42.254Z,79.35
2019-02-20T19:02:10.698Z,79.59
2019-02-20T19:04:39.113Z,79.99
2019-02-20T19:07:09.441Z,79.92
2019-02-20T19:09:37.888Z,79.48
2019-02-20T19:12:24.563Z,80.50
2019-02-20T19:15:01.845Z,80.46
2019-02-20T19:18:02.239Z,80.13
2019-02-20T19:20:51.712Z,80.38
2019-02-20T19:23:44.563Z,80.19
2019-02-20T19:26:28.105Z,80.74
2019-02-20T19:29:19.074Z,81.33
2019-02-20T19:32:18.016Z,80.87
2019-02-20T19:35:08.646Z,80.95
2019-02-20T19:38:06.660Z,81.23
2019-02-20T19:40:52.101Z,81.09
2019-02-20T19:43:32.220Z,81.30
2019-02-20T19:46:20.165Z,81.45
2019-02-20T19:48:57.466Z,81.35
2019-02-20T19:51:31.942Z,81.46
2019-02-20T19:54:12.070Z,82.10
2019-02-20T19:56:55.577Z,82.43
2019-02-20T19:59:29.841Z,81.91
2019-02-20T20:02:16.399Z,81.98
2019-02-20T20:05:15.054Z,82.61
2019-02-20T20:07:55.218Z,82.28
2019-02-20T20:10:41.591Z,82.58
2019-02-20T20:13:33.048Z,82.79
2019-02-20T20:16:04.525Z,82.87
2019-02-20T20:18:44.683Z,83.23
2019-02-20T20:21:27.959Z,83.62
2019-02-20T20:24:23.786Z,83.76
2019-02-20T20:26:57.713Z,83.91
2019-02-20T20:29:53.174Z,83.57
2019-02-20T20:32:27.356Z,83.04
2019-02-20T20:35:15.637Z,83.22
2019-02-20T20:37:49.515Z,83.83
2019-02-20T20:40:36.211Z,84.11
2019-02-20T20:43:10.798Z,84.00
2019-02-20T20:46:00.395Z,84.18
2019-02-20T20:48:34.459Z,84.21
2019-02-20T20:51:11.908Z,84.42
2019-02-20T20:53:56.261Z,84.77
2019-02-20T20:56:30.391Z,84.42
2019-02-20T20:59:17.949Z,85.03
2019-02-20T21:01:49.578Z,84.51
2019-02-20T21:04:33.349Z,84.87
2019-02-20T21:07:22.808Z,85.39
2019-02-20T21:09:57.045Z,84.67
2019-02-20T21:12:48.226Z,84.65
2019-02-20T21:15:53.170Z,85.25
2019-02-20T21:18:42.590Z,85.40
2019-02-20T21:21:32.271Z,85.46
2019-02-20T21:24:31.034Z,85.45
2019-02-20T21:27:11.422Z,84.96
2019-02-20T21:29:48.600Z,85.76
2019-02-20T21:32:39.358Z,85.59
2019-02-20T21:35:22.564Z,85.97
2019-02-20T21:38:00.182Z,85.45
2019-02-20T21:40:34.694Z,85.35
2019-02-20T21:43:31.459Z,85.90
2019-02-20T21:46:36.010Z,85.41
2019-02-20T21:49:22.498Z,85.86
2019-02-20T21:52:25.037Z,85.92
2019-02-20T21:55:04.588Z,86.03
2019-02-20T21:57:45.132Z,86.11
2019-02-20T22:00:28.440Z,85.78
2019-02-20T22:03:02.421Z,85.85
2019-02-20T22:05:45.952Z,86.16
2019-02-20T22:08:31.697Z,86.19
2019-02-20T22:11:18.027Z,86.00
2019-02-20T22:13:52.419Z,86.53
2019-02-20T22:16:38.865Z,86.22
2019-02-20T22:19:32.816Z,86.11
2019-02-20T22:22:10.320Z,85.90
2019-02-20T22:25:00.704Z,86.70
2019-02-20T22:27:43.934Z,86.69
2019-02-20T22:30:37.920Z,87.07
2019-02-20T22:33:11.902Z,86.46
2019-02-20T22:36:01.517Z,86.36
2019-02-20T22:38:48.437Z,87.06
2019-02-20T22:41:23.992Z,86.60
2019-02-20T22:44:12.261Z,87.23
2019-02-20T22:46:58.918Z,87.02
2019-02-20T22:49:39.983Z,86.76
2019-02-20T22:52:23.681Z,86.35
2019-02-20T22:54:58.112Z,86.24
2019-02-20T22:57:47.100Z,86.62
2019-02-20T23:00:52.708Z,86.97
2019-02-20T23:03:35.700Z,86.63
2019-02-20T23:06:25.475Z,86.82
2019-02-20T23:09:08.465Z,87.04
2019-02-20T23:11:45.634Z,86.52
2019-02-20T23:14:33.603Z,87.14
2019-02-20T23:17:02.006Z,86.82
2019-02-20T23:19:30.476Z,86.47
2019-02-20T23:21:58.900Z,87.04
2019-02-20T23:24:27.384Z,87.26
2019-02-20T23:26:55.785Z,86.67
2019-02-20T23:29:24.288Z,86.42
2019-02-20T23:31:52.716Z,86.92
2019-02-20T23:34:21.210Z,86.38
2019-02-20T23:36:49.704Z,86.78
2019-02-20T23:39:18.120Z,86.98
2019-02-20T23:41:46.543Z,86.59
2019-02-20T23:44:14.971Z,87.66
2019-02-20T23:46:43.399Z,86.90
2019-02-20T23:49:11.817Z,87.50
2019-02-20T23:51:40.212Z,88.05
2019-02-20T23:54:08.635Z,87.80
2019-02-20T23:56:37.045Z,87.79
2019-02-20T23:59:05.525Z,87.77
